createdAt,value
2019-06-20T00:00:07.211Z,13.93
2019-06-20T00:01:43.170Z,13.91
2019-06-20T00:03:20.767Z,13.90
2019-06-20T00:04:56.621Z,13.91
2019-06-20T00:06:32.936Z,13.94
2019-06-20T00:08:11.322Z,14.01
2019-06-20T00:09:52.412Z,13.98
2019-06-20T00:11:28.857Z,14.02
2019-06-20T00:13:06.142Z,14.00
2019-06-20T00:14:42.804Z,13.93
2019-06-20T00:16:19.785Z,13.89
2019-06-20T00:17:55.958Z,13.84
2019-06-20T00:19:32.882Z,13.78
2019-06-20T00:21:10.300Z,13.82
2019-06-20T00:22:46.569Z,13.85
2019-06-20T00:24:22.579Z,13.88
2019-06-20T00:25:58.631Z,13.87
2019-06-20T00:27:35.553Z,13.85
2019-06-20T00:29:14.552Z,13.74
2019-06-20T00:30:50.983Z,13.73
2019-06-20T00:32:27.720Z,13.75
2019-06-20T00:34:05.833Z,13.79
2019-06-20T00:35:43.351Z,13.80
2019-06-20T00:37:20.241Z,13.86
2019-06-20T00:38:58.494Z,13.82
2019-06-20T00:40:34.190Z,13.78
2019-06-20T00:42:10.811Z,13.71
2019-06-20T00:43:46.697Z,13.65
2019-06-20T00:45:24.687Z,13.73
2019-06-20T00:47:01.535Z,13.76
2019-06-20T00:48:40.783Z,13.79
2019-06-20T00:50:17.691Z,13.82
2019-06-20T00:51:54.653Z,13.83
2019-06-20T00:53:30.422Z,13.82
2019-06-20T00:55:07.331Z,13.74
2019-06-20T00:56:42.986Z,13.70
2019-06-20T00:58:19.513Z,13.76
2019-06-20T00:59:55.241Z,13.80
2019-06-20T01:01:32.734Z,13.70
2019-06-20T01:03:09.246Z,13.77
2019-06-20T01:04:45.274Z,13.80
2019-06-20T01:06:21.168Z,13.78
2019-06-20T01:07:57.772Z,13.81
2019-06-20T01:09:33.203Z,13.75
2019-06-20T01:11:10.271Z,13.76
2019-06-20T01:12:46.238Z,13.83
2019-06-20T01:14:22.077Z,13.75
2019-06-20T01:15:58.259Z,13.82
2019-06-20T01:17:33.908Z,13.78
2019-06-20T01:19:09.588Z,13.75
2019-06-20T01:20:45.433Z,13.83
2019-06-20T01:22:20.755Z,13.84
2019-06-20T01:23:57.832Z,13.83
2019-06-20T01:25:39.651Z,13.90
2019-06-20T01:27:15.576Z,13.91
2019-06-20T01:28:50.957Z,13.88
2019-06-20T01:30:27.227Z,13.86
2019-06-20T01:32:03.455Z,13.87
2019-06-20T01:33:39.840Z,13.87
2019-06-20T01:35:15.583Z,13.89
2019-06-20T01:36:51.633Z,13.92
2019-06-20T01:38:28.029Z,13.99
2019-06-20T01:40:04.028Z,14.11
2019-06-20T01:41:39.913Z,14.14
2019-06-20T01:43:18.028Z,14.15
2019-06-20T01:44:53.837Z,14.18
2019-06-20T01:46:31.069Z,14.19
2019-06-20T01:48:07.182Z,14.28
2019-06-20T01:49:43.335Z,14.31
2019-06-20T01:51:18.878Z,14.31
2019-06-20T01:52:55.781Z,14.32
2019-06-20T01:54:31.602Z,14.36
2019-06-20T01:56:07.626Z,14.38
2019-06-20T01:57:43.092Z,14.42
2019-06-20T01:59:19.172Z,14.42
2019-06-20T02:00:55.146Z,14.48
2019-06-20T02:02:31.842Z,14.50
2019-06-20T02:04:07.807Z,14.53
2019-06-20T02:05:45.052Z,14.55
2019-06-20T02:07:20.612Z,14.59
2019-06-20T02:08:56.950Z,14.60
2019-06-20T02:10:32.193Z,14.61
2019-06-20T02:12:08.786Z,14.68
2019-06-20T02:13:44.536Z,14.73
2019-06-20T02:15:21.037Z,14.80
2019-06-20T02:16:58.184Z,14.79
2019-06-20T02:18:34.659Z,14.83
2019-06-20T02:20:09.893Z,14.87
2019-06-20T02:21:46.067Z,14.88
2019-06-20T02:23:22.851Z,14.94
2019-06-20T02:24:59.626Z,14.87
2019-06-20T02:26:35.617Z,14.86
2019-06-20T02:28:13.243Z,14.88
2019-06-20T02:29:49.081Z,14.91
2019-06-20T02:31:25.805Z,14.90
2019-06-20T02:33:02.018Z,14.88
2019-06-20T02:34:39.180Z,14.89
2019-06-20T02:36:15.194Z,14.89
2019-06-20T02:37:52.445Z,14.82
2019-06-20T02:39:29.962Z,14.80
2019-06-20T02:41:06.819Z,14.77
2019-06-20T02:42:42.667Z,14.78
2019-06-20T02:44:30.103Z,14.81
2019-06-20T02:45:56.167Z,14.81
2019-06-20T02:47:33.281Z,14.80
2019-06-20T02:49:12.188Z,14.81
2019-06-20T02:50:49.035Z,14.81
2019-06-20T02:52:25.838Z,14.80
2019-06-20T02:54:02.106Z,14.79
2019-06-20T02:55:37.797Z,14.82
2019-06-20T02:57:14.438Z,14.79
2019-06-20T02:58:49.774Z,14.82
2019-06-20T03:00:35.619Z,14.87
2019-06-20T03:02:12.054Z,14.85
2019-06-20T03:03:47.696Z,14.89
2019-06-20T03:05:23.799Z,14.92
2019-06-20T03:06:58.959Z,14.89
2019-06-20T03:08:35.489Z,14.91
2019-06-20T03:10:11.279Z,14.90
2019-06-20T03:11:47.093Z,14.87
2019-06-20T03:13:22.774Z,14.89
2019-06-20T03:14:58.616Z,14.93
2019-06-20T03:16:34.201Z,14.92
2019-06-20T03:18:10.811Z,14.94
2019-06-20T03:19:46.088Z,14.88
2019-06-20T03:21:21.831Z,14.95
2019-06-20T03:22:56.945Z,14.95
2019-06-20T03:24:33.152Z,14.96
2019-06-20T03:26:09.134Z,14.97
2019-06-20T03:27:44.977Z,15.01
2019-06-20T03:29:20.431Z,15.01
2019-06-20T03:30:56.405Z,15.01
2019-06-20T03:32:31.971Z,14.97
2019-06-20T03:34:08.027Z,14.91
2019-06-20T03:35:43.541Z,14.96
2019-06-20T03:37:19.756Z,14.96
2019-06-20T03:38:55.069Z,14.96
2019-06-20T03:40:30.853Z,14.98
2019-06-20T03:42:06.294Z,15.01
2019-06-20T03:43:42.368Z,15.00
2019-06-20T03:45:17.501Z,14.94
2019-06-20T03:46:53.284Z,14.97
2019-06-20T03:48:28.538Z,14.95
2019-06-20T03:50:07.025Z,14.96
2019-06-20T03:51:42.287Z,14.96
2019-06-20T03:53:18.375Z,14.97
2019-06-20T03:54:54.162Z,14.95
2019-06-20T03:56:30.082Z,14.97
2019-06-20T03:58:05.889Z,14.99
2019-06-20T03:59:41.856Z,14.97
2019-06-20T04:01:17.559Z,15.01
2019-06-20T04:02:53.621Z,15.01
2019-06-20T04:04:29.231Z,14.99
2019-06-20T04:06:05.048Z,14.97
2019-06-20T04:07:40.132Z,14.98
2019-06-20T04:09:16.178Z,14.95
2019-06-20T04:10:51.654Z,14.92
2019-06-20T04:12:27.761Z,14.90
2019-06-20T04:14:03.232Z,14.94
2019-06-20T04:15:39.235Z,14.91
2019-06-20T04:17:14.374Z,14.98
2019-06-20T04:18:50.183Z,15.00
2019-06-20T04:20:26.221Z,14.97
2019-06-20T04:22:02.516Z,15.03
2019-06-20T04:23:38.097Z,15.08
2019-06-20T04:25:14.141Z,15.04
2019-06-20T04:26:49.782Z,15.08
2019-06-20T04:28:25.824Z,15.00
2019-06-20T04:30:01.093Z,14.99
2019-06-20T04:31:38.278Z,14.97
2019-06-20T04:33:13.556Z,14.95
2019-06-20T04:34:49.309Z,14.91
2019-06-20T04:36:24.452Z,15.01
2019-06-20T04:38:00.559Z,15.01
2019-06-20T04:39:35.950Z,15.01
2019-06-20T04:41:11.823Z,15.01
2019-06-20T04:42:47.831Z,15.10
2019-06-20T04:44:23.576Z,15.13
2019-06-20T04:46:10.543Z,15.11
2019-06-20T04:47:46.265Z,15.15
2019-06-20T04:49:22.523Z,15.22
2019-06-20T04:50:58.568Z,15.11
2019-06-20T04:52:33.676Z,15.15
2019-06-20T04:54:09.913Z,15.07
2019-06-20T04:55:46.116Z,15.02
2019-06-20T04:57:22.970Z,14.96
2019-06-20T04:58:58.760Z,15.04
2019-06-20T05:00:35.027Z,15.05
2019-06-20T05:02:13.968Z,14.98
2019-06-20T05:03:48.804Z,14.99
2019-06-20T05:05:24.588Z,15.10
2019-06-20T05:07:06.928Z,15.13
2019-06-20T05:08:42.761Z,15.16
2019-06-20T05:10:18.437Z,15.18
2019-06-20T05:11:54.490Z,15.23
2019-06-20T05:13:31.688Z,15.26
2019-06-20T05:15:08.474Z,15.16
2019-06-20T05:16:44.028Z,15.19
2019-06-20T05:18:20.145Z,15.25
2019-06-20T05:19:55.889Z,15.19
2019-06-20T05:21:33.005Z,15.23
2019-06-20T05:23:09.039Z,15.25
2019-06-20T05:24:45.185Z,15.24
2019-06-20T05:26:21.198Z,15.35
2019-06-20T05:27:57.363Z,15.37
2019-06-20T05:29:33.202Z,15.36
2019-06-20T05:31:09.651Z,15.41
2019-06-20T05:32:45.158Z,15.26
2019-06-20T05:34:21.668Z,15.34
2019-06-20T05:35:57.812Z,15.36
2019-06-20T05:37:34.921Z,15.37
2019-06-20T05:39:10.657Z,15.32
2019-06-20T05:40:46.655Z,15.38
2019-06-20T05:42:22.416Z,15.46
2019-06-20T05:43:59.612Z,15.46
2019-06-20T05:45:35.268Z,15.36
2019-06-20T05:47:13.866Z,15.45
2019-06-20T05:48:48.620Z,15.52
2019-06-20T05:50:25.164Z,15.68
2019-06-20T05:52:00.924Z,15.56
2019-06-20T05:53:37.680Z,15.61
2019-06-20T05:55:12.967Z,15.59
2019-06-20T05:56:49.006Z,15.63
2019-06-20T05:58:24.796Z,15.68
2019-06-20T06:00:01.162Z,15.61
2019-06-20T06:01:36.835Z,15.64
2019-06-20T06:03:13.849Z,15.67
2019-06-20T06:04:49.963Z,15.54
2019-06-20T06:06:26.292Z,15.54
2019-06-20T06:08:01.995Z,15.59
2019-06-20T06:09:38.256Z,15.65
2019-06-20T06:11:13.554Z,15.67
2019-06-20T06:12:49.674Z,15.68
2019-06-20T06:14:26.106Z,15.80
2019-06-20T06:16:02.372Z,15.87
2019-06-20T06:17:38.671Z,15.90
2019-06-20T06:19:15.167Z,15.97
2019-06-20T06:20:52.440Z,15.91
2019-06-20T06:22:29.199Z,15.91
2019-06-20T06:24:06.327Z,16.11
2019-06-20T06:25:47.041Z,16.25
2019-06-20T06:27:23.784Z,16.34
2019-06-20T06:29:00.047Z,16.40
2019-06-20T06:30:36.150Z,16.24
2019-06-20T06:32:11.980Z,16.01
2019-06-20T06:33:48.527Z,16.01
2019-06-20T06:35:23.813Z,16.04
2019-06-20T06:37:00.564Z,16.06
2019-06-20T06:38:36.301Z,16.04
2019-06-20T06:40:12.688Z,16.05
2019-06-20T06:41:48.951Z,15.87
2019-06-20T06:43:25.071Z,15.98
2019-06-20T06:45:00.687Z,15.94
2019-06-20T06:46:44.853Z,15.80
2019-06-20T06:48:14.847Z,15.93
2019-06-20T06:49:51.004Z,15.90
2019-06-20T06:51:26.870Z,16.01
2019-06-20T06:53:03.830Z,16.04
2019-06-20T06:54:39.236Z,15.94
2019-06-20T06:56:15.251Z,15.97
2019-06-20T06:57:50.708Z,16.04
2019-06-20T06:59:27.407Z,15.99
2019-06-20T07:01:03.389Z,15.95
2019-06-20T07:02:39.919Z,15.93
2019-06-20T07:04:15.719Z,15.88
2019-06-20T07:05:51.804Z,15.98
2019-06-20T07:07:28.655Z,15.99
2019-06-20T07:09:05.350Z,16.09
2019-06-20T07:10:41.544Z,16.06
2019-06-20T07:12:17.962Z,16.05
2019-06-20T07:13:54.926Z,16.04
2019-06-20T07:15:31.845Z,16.20
2019-06-20T07:17:07.511Z,16.32
2019-06-20T07:18:44.269Z,16.45
2019-06-20T07:20:20.226Z,16.45
2019-06-20T07:21:58.086Z,16.49
2019-06-20T07:23:35.310Z,16.64
2019-06-20T07:25:15.605Z,16.74
2019-06-20T07:26:51.761Z,16.74
2019-06-20T07:28:28.484Z,16.82
2019-06-20T07:30:06.893Z,16.83
2019-06-20T07:31:46.604Z,16.81
2019-06-20T07:33:23.720Z,16.66
2019-06-20T07:35:01.856Z,16.81
2019-06-20T07:36:38.948Z,16.50
2019-06-20T07:38:25.947Z,16.77
2019-06-20T07:40:02.731Z,16.61
2019-06-20T07:41:47.138Z,16.66
2019-06-20T07:43:23.772Z,16.79
2019-06-20T07:44:59.642Z,16.73
2019-06-20T07:46:37.486Z,16.97
2019-06-20T07:48:13.171Z,16.97
2019-06-20T07:49:50.792Z,17.30
2019-06-20T07:51:26.938Z,17.22
2019-06-20T07:53:03.230Z,16.97
2019-06-20T07:54:40.262Z,17.22
2019-06-20T07:56:19.869Z,17.58
2019-06-20T07:57:56.436Z,17.75
2019-06-20T07:59:32.817Z,17.99
2019-06-20T08:01:16.367Z,17.87
2019-06-20T08:02:51.975Z,18.01
2019-06-20T08:04:28.631Z,18.15
2019-06-20T08:06:09.982Z,17.96
2019-06-20T08:07:50.501Z,18.51
2019-06-20T08:09:44.933Z,18.87
2019-06-20T08:11:16.645Z,19.37
2019-06-20T08:12:55.192Z,19.09
2019-06-20T08:14:32.863Z,19.24
2019-06-20T08:16:09.666Z,18.75
2019-06-20T08:17:46.311Z,18.95
2019-06-20T08:19:27.169Z,18.69
2019-06-20T08:21:05.835Z,18.93
2019-06-20T08:22:49.630Z,18.80
2019-06-20T08:24:33.871Z,19.29
2019-06-20T08:26:09.561Z,19.28
2019-06-20T08:27:59.437Z,18.58
2019-06-20T08:29:37.886Z,19.00
2019-06-20T08:31:14.614Z,19.13
2019-06-20T08:32:51.293Z,18.96
2019-06-20T08:34:27.951Z,19.28
2019-06-20T08:36:06.572Z,19.89
2019-06-20T08:37:45.678Z,19.49
2019-06-20T08:39:22.436Z,19.12
2019-06-20T08:40:58.555Z,19.94
2019-06-20T08:42:39.789Z,20.13
2019-06-20T08:44:16.956Z,20.18
2019-06-20T08:45:56.135Z,20.24
2019-06-20T08:47:33.211Z,20.96
2019-06-20T08:49:09.978Z,21.36
2019-06-20T08:50:47.233Z,21.65
2019-06-20T08:52:25.062Z,22.24
2019-06-20T08:54:01.622Z,22.41
2019-06-20T08:55:40.982Z,22.41
2019-06-20T08:57:17.849Z,22.07
2019-06-20T08:58:55.732Z,21.38
2019-06-20T09:00:32.432Z,21.46
2019-06-20T09:02:09.366Z,21.08
2019-06-20T09:03:47.815Z,21.06
2019-06-20T09:05:29.582Z,20.38
2019-06-20T09:07:06.153Z,20.22
2019-06-20T09:08:41.336Z,20.20
2019-06-20T09:10:19.981Z,19.94
2019-06-20T09:11:58.594Z,19.29
2019-06-20T09:13:36.845Z,19.86
2019-06-20T09:15:13.481Z,19.98
2019-06-20T09:16:49.264Z,19.63
2019-06-20T09:18:26.689Z,19.75
2019-06-20T09:20:03.014Z,19.79
2019-06-20T09:21:39.424Z,19.67
2019-06-20T09:23:15.777Z,19.33
2019-06-20T09:24:55.165Z,19.27
2019-06-20T09:26:32.541Z,19.06
2019-06-20T09:28:13.157Z,19.14
2019-06-20T09:29:56.184Z,19.46
2019-06-20T09:31:45.813Z,19.33
2019-06-20T09:33:21.617Z,19.44
2019-06-20T09:34:59.241Z,19.51
2019-06-20T09:36:34.571Z,19.49
2019-06-20T09:38:10.564Z,19.45
2019-06-20T09:39:53.180Z,19.53
2019-06-20T09:41:31.082Z,19.67
2019-06-20T09:43:06.661Z,20.03
2019-06-20T09:44:43.680Z,20.16
2019-06-20T09:46:18.912Z,20.09
2019-06-20T09:47:56.036Z,20.72
2019-06-20T09:49:33.991Z,20.52
2019-06-20T09:51:10.077Z,21.09
2019-06-20T09:52:49.778Z,21.68
2019-06-20T09:54:23.730Z,21.30
2019-06-20T09:56:04.924Z,21.90
2019-06-20T09:57:42.272Z,22.75
2019-06-20T09:59:27.559Z,22.83
2019-06-20T10:00:57.828Z,23.02
2019-06-20T10:02:33.417Z,22.85
2019-06-20T10:04:10.435Z,22.78
2019-06-20T10:05:47.337Z,23.06
2019-06-20T10:07:25.536Z,23.02
2019-06-20T10:09:01.285Z,23.06
2019-06-20T10:10:37.295Z,22.61
2019-06-20T10:12:13.903Z,22.25
2019-06-20T10:13:54.283Z,21.99
2019-06-20T10:15:32.800Z,22.11
2019-06-20T10:17:09.710Z,21.95
2019-06-20T10:18:50.330Z,22.25
2019-06-20T10:20:27.891Z,21.78
2019-06-20T10:22:03.083Z,21.34
2019-06-20T10:23:40.035Z,21.18
2019-06-20T10:25:15.824Z,20.97
2019-06-20T10:26:55.135Z,20.93
2019-06-20T10:28:32.876Z,20.75
2019-06-20T10:30:17.139Z,21.10
2019-06-20T10:32:03.780Z,21.26
2019-06-20T10:33:57.203Z,21.43
2019-06-20T10:35:36.778Z,21.07
2019-06-20T10:37:12.874Z,21.20
2019-06-20T10:38:50.366Z,20.88
2019-06-20T10:40:28.065Z,20.82
2019-06-20T10:42:04.197Z,21.22
2019-06-20T10:43:40.256Z,21.05
2019-06-20T10:45:21.681Z,21.07
2019-06-20T10:46:58.142Z,20.81
2019-06-20T10:48:35.110Z,20.85
2019-06-20T10:50:15.696Z,20.57
2019-06-20T10:51:51.958Z,21.06
2019-06-20T10:53:33.452Z,21.15
2019-06-20T10:55:09.679Z,20.81
2019-06-20T10:56:45.800Z,20.73
2019-06-20T10:58:23.515Z,20.66
2019-06-20T11:00:01.016Z,20.55
2019-06-20T11:01:37.333Z,20.53
2019-06-20T11:03:15.837Z,20.88
2019-06-20T11:04:53.131Z,20.72
2019-06-20T11:06:30.093Z,20.89
2019-06-20T11:08:07.008Z,20.97
2019-06-20T11:09:45.221Z,21.27
2019-06-20T11:11:20.548Z,21.61
2019-06-20T11:12:57.512Z,21.96
2019-06-20T11:14:33.060Z,21.83
2019-06-20T11:16:09.846Z,22.28
2019-06-20T11:17:46.316Z,22.32
2019-06-20T11:19:22.480Z,23.24
2019-06-20T11:20:57.765Z,23.70
2019-06-20T11:22:34.094Z,23.63
2019-06-20T11:24:10.308Z,24.31
2019-06-20T11:25:46.668Z,24.05
2019-06-20T11:27:21.973Z,23.71
2019-06-20T11:28:57.896Z,22.94
2019-06-20T11:30:46.740Z,22.44
2019-06-20T11:32:11.686Z,22.33
2019-06-20T11:33:48.401Z,22.11
2019-06-20T11:35:24.420Z,21.82
2019-06-20T11:37:00.924Z,22.03
2019-06-20T11:38:39.052Z,22.04
2019-06-20T11:40:14.210Z,22.50
2019-06-20T11:41:52.505Z,22.92
2019-06-20T11:43:28.349Z,23.13
2019-06-20T11:45:08.270Z,23.53
2019-06-20T11:46:44.635Z,24.11
2019-06-20T11:48:22.010Z,24.47
2019-06-20T11:50:03.338Z,24.48
2019-06-20T11:51:43.589Z,23.48
2019-06-20T11:53:21.907Z,22.64
2019-06-20T11:54:58.166Z,21.89
2019-06-20T11:56:35.969Z,21.71
2019-06-20T11:58:13.798Z,21.75
2019-06-20T11:59:50.595Z,21.68
2019-06-20T12:01:33.446Z,21.88
2019-06-20T12:03:09.108Z,21.01
2019-06-20T12:04:57.270Z,20.81
2019-06-20T12:06:47.119Z,21.47
2019-06-20T12:08:31.688Z,21.84
2019-06-20T12:10:11.065Z,22.51
2019-06-20T12:11:48.886Z,22.74
2019-06-20T12:13:24.956Z,22.81
2019-06-20T12:15:01.254Z,23.02
2019-06-20T12:16:40.842Z,23.60
2019-06-20T12:18:17.177Z,23.60
2019-06-20T12:19:53.715Z,24.10
2019-06-20T12:21:30.344Z,23.82
2019-06-20T12:23:06.623Z,24.72
2019-06-20T12:24:44.706Z,24.75
2019-06-20T12:26:21.499Z,24.45
2019-06-20T12:27:59.419Z,24.67
2019-06-20T12:29:44.373Z,23.59
2019-06-20T12:31:20.105Z,23.62
2019-06-20T12:32:57.042Z,24.50
2019-06-20T12:34:33.726Z,25.28
2019-06-20T12:36:11.627Z,25.17
2019-06-20T12:37:49.839Z,24.89
2019-06-20T12:39:26.475Z,24.40
2019-06-20T12:41:03.792Z,23.80
2019-06-20T12:42:42.972Z,23.25
2019-06-20T12:44:19.881Z,23.10
2019-06-20T12:45:56.819Z,23.27
2019-06-20T12:47:32.980Z,24.11
2019-06-20T12:49:09.955Z,24.33
2019-06-20T12:50:49.540Z,24.11
2019-06-20T12:52:25.954Z,24.82
2019-06-20T12:54:04.599Z,24.17
2019-06-20T12:55:42.355Z,23.94
2019-06-20T12:57:18.974Z,23.63
2019-06-20T12:59:00.221Z,24.10
2019-06-20T13:00:37.655Z,23.50
2019-06-20T13:02:15.754Z,23.24
2019-06-20T13:03:55.768Z,22.94
2019-06-20T13:05:34.230Z,23.26
2019-06-20T13:07:10.861Z,23.60
2019-06-20T13:08:47.461Z,22.88
2019-06-20T13:10:22.857Z,22.66
2019-06-20T13:12:01.298Z,22.46
2019-06-20T13:13:40.539Z,22.39
2019-06-20T13:15:21.600Z,22.19
2019-06-20T13:16:57.695Z,22.18
2019-06-20T13:18:37.579Z,22.01
2019-06-20T13:20:20.035Z,21.66
2019-06-20T13:22:00.314Z,21.78
2019-06-20T13:23:37.038Z,21.50
2019-06-20T13:25:12.348Z,21.13
2019-06-20T13:26:49.013Z,21.00
2019-06-20T13:28:27.894Z,21.02
2019-06-20T13:30:11.887Z,20.96
2019-06-20T13:32:01.857Z,20.86
2019-06-20T13:33:26.066Z,20.69
2019-06-20T13:35:03.014Z,20.42
2019-06-20T13:36:42.888Z,19.96
2019-06-20T13:38:20.099Z,19.83
2019-06-20T13:39:57.220Z,19.81
2019-06-20T13:41:34.926Z,19.57
2019-06-20T13:43:11.228Z,19.38
2019-06-20T13:44:46.690Z,19.19
2019-06-20T13:46:27.196Z,19.32
2019-06-20T13:48:10.409Z,19.34
2019-06-20T13:49:54.555Z,19.57
2019-06-20T13:51:33.529Z,19.77
2019-06-20T13:53:10.691Z,19.26
2019-06-20T13:54:50.310Z,19.47
2019-06-20T13:56:28.240Z,19.28
2019-06-20T13:58:11.721Z,19.03
2019-06-20T13:59:51.100Z,19.26
2019-06-20T14:01:40.134Z,19.17
2019-06-20T14:03:11.202Z,19.40
2019-06-20T14:04:50.722Z,19.32
2019-06-20T14:06:27.050Z,19.26
2019-06-20T14:08:02.730Z,19.32
2019-06-20T14:09:44.651Z,18.96
2019-06-20T14:11:20.178Z,19.01
2019-06-20T14:12:56.296Z,19.00
2019-06-20T14:14:34.488Z,19.01
2019-06-20T14:16:10.889Z,18.95
2019-06-20T14:17:47.275Z,18.94
2019-06-20T14:19:23.703Z,18.64
2019-06-20T14:21:00.066Z,18.75
2019-06-20T14:22:36.291Z,18.60
2019-06-20T14:24:12.143Z,18.57
2019-06-20T14:25:51.430Z,18.51
2019-06-20T14:27:28.987Z,18.44
2019-06-20T14:29:05.469Z,18.36
2019-06-20T14:30:50.359Z,18.37
2019-06-20T14:32:32.024Z,18.27
2019-06-20T14:34:23.090Z,18.17
2019-06-20T14:36:01.644Z,18.15
2019-06-20T14:37:43.419Z,18.17
2019-06-20T14:39:17.996Z,18.12
2019-06-20T14:40:54.564Z,17.98
2019-06-20T14:42:30.091Z,17.87
2019-06-20T14:44:13.623Z,17.45
2019-06-20T14:45:50.757Z,17.40
2019-06-20T14:47:27.500Z,17.25
2019-06-20T14:49:02.808Z,17.34
2019-06-20T14:50:40.321Z,17.42
2019-06-20T14:52:16.693Z,17.16
2019-06-20T14:53:54.575Z,17.40
2019-06-20T14:55:30.988Z,17.43
2019-06-20T14:57:06.830Z,17.29
2019-06-20T14:58:42.083Z,17.14
2019-06-20T15:00:20.557Z,17.12
2019-06-20T15:01:56.027Z,16.99
2019-06-20T15:03:32.052Z,17.07
2019-06-20T15:05:07.617Z,17.04
2019-06-20T15:06:44.949Z,16.94
2019-06-20T15:08:20.984Z,17.14
2019-06-20T15:09:58.355Z,17.08
2019-06-20T15:11:33.581Z,17.00
2019-06-20T15:13:09.960Z,17.16
2019-06-20T15:14:47.904Z,17.25
2019-06-20T15:16:24.034Z,17.48
2019-06-20T15:18:06.738Z,17.64
2019-06-20T15:19:44.906Z,17.77
2019-06-20T15:21:23.682Z,17.60
2019-06-20T15:23:05.626Z,17.49
2019-06-20T15:24:44.959Z,17.42
2019-06-20T15:26:18.920Z,17.12
2019-06-20T15:27:55.784Z,17.05
2019-06-20T15:29:32.511Z,17.03
2019-06-20T15:31:13.123Z,17.02
2019-06-20T15:33:04.063Z,16.83
2019-06-20T15:34:28.990Z,17.11
2019-06-20T15:36:05.134Z,17.28
2019-06-20T15:37:43.262Z,17.10
2019-06-20T15:39:20.615Z,17.23
2019-06-20T15:41:00.278Z,17.22
2019-06-20T15:42:47.100Z,17.18
2019-06-20T15:44:23.457Z,17.43
2019-06-20T15:46:04.555Z,17.46
2019-06-20T15:47:40.982Z,17.43
2019-06-20T15:49:16.622Z,17.35
2019-06-20T15:50:52.621Z,17.26
2019-06-20T15:52:29.325Z,17.42
2019-06-20T15:54:05.478Z,17.33
2019-06-20T15:55:40.810Z,17.38
2019-06-20T15:57:17.744Z,17.32
2019-06-20T15:58:53.133Z,17.27
2019-06-20T16:00:29.053Z,17.21
2019-06-20T16:02:04.610Z,17.10
2019-06-20T16:03:40.411Z,17.12
2019-06-20T16:05:15.779Z,17.10
2019-06-20T16:06:52.179Z,16.99
2019-06-20T16:08:29.149Z,16.99
2019-06-20T16:10:05.025Z,16.91
2019-06-20T16:11:40.289Z,17.06
2019-06-20T16:13:21.864Z,17.11
2019-06-20T16:14:59.173Z,17.09
2019-06-20T16:16:44.698Z,16.97
2019-06-20T16:18:29.653Z,17.10
2019-06-20T16:20:05.660Z,17.17
2019-06-20T16:21:41.727Z,17.00
2019-06-20T16:23:20.415Z,17.06
2019-06-20T16:24:55.939Z,16.95
2019-06-20T16:26:36.106Z,17.00
2019-06-20T16:28:16.063Z,17.04
2019-06-20T16:29:54.272Z,16.86
2019-06-20T16:31:29.667Z,16.60
2019-06-20T16:33:05.414Z,16.70
2019-06-20T16:34:42.932Z,16.82
2019-06-20T16:36:20.617Z,16.68
2019-06-20T16:37:55.911Z,16.55
2019-06-20T16:39:35.305Z,16.66
2019-06-20T16:41:10.566Z,16.66
2019-06-20T16:42:46.668Z,16.60
2019-06-20T16:44:22.836Z,16.66
2019-06-20T16:45:59.367Z,16.79
2019-06-20T16:47:34.757Z,16.64
2019-06-20T16:49:16.369Z,16.67
2019-06-20T16:50:55.938Z,16.72
2019-06-20T16:52:32.402Z,16.74
2019-06-20T16:54:07.801Z,16.81
2019-06-20T16:55:43.540Z,16.82
2019-06-20T16:57:19.439Z,16.78
2019-06-20T16:58:56.246Z,16.82
2019-06-20T17:00:33.922Z,16.69
2019-06-20T17:02:09.780Z,16.92
2019-06-20T17:03:55.859Z,17.31
2019-06-20T17:05:32.680Z,17.25
2019-06-20T17:07:09.429Z,17.18
2019-06-20T17:08:45.151Z,17.77
2019-06-20T17:10:21.289Z,17.85
2019-06-20T17:11:57.571Z,17.67
2019-06-20T17:13:34.114Z,17.84
2019-06-20T17:15:12.967Z,17.96
2019-06-20T17:16:48.877Z,18.12
2019-06-20T17:18:24.909Z,18.29
2019-06-20T17:20:06.248Z,18.23
2019-06-20T17:21:45.201Z,18.28
2019-06-20T17:23:21.534Z,18.51
2019-06-20T17:25:06.702Z,18.65
2019-06-20T17:26:43.915Z,18.76
2019-06-20T17:28:22.168Z,18.74
2019-06-20T17:29:57.860Z,18.72
2019-06-20T17:31:34.446Z,18.71
2019-06-20T17:33:18.327Z,18.86
2019-06-20T17:34:58.057Z,18.60
2019-06-20T17:36:37.545Z,18.60
2019-06-20T17:38:16.116Z,18.36
2019-06-20T17:39:54.116Z,18.16
2019-06-20T17:41:31.428Z,18.15
2019-06-20T17:43:09.526Z,18.32
2019-06-20T17:44:47.759Z,18.30
2019-06-20T17:46:24.171Z,18.39
2019-06-20T17:48:01.422Z,18.28
2019-06-20T17:49:37.580Z,18.32
2019-06-20T17:51:15.022Z,18.25
2019-06-20T17:52:51.359Z,18.09
2019-06-20T17:54:28.266Z,18.07
2019-06-20T17:56:06.976Z,17.86
2019-06-20T17:57:43.760Z,17.62
2019-06-20T17:59:22.863Z,17.56
2019-06-20T18:00:59.187Z,17.48
2019-06-20T18:02:35.760Z,17.65
2019-06-20T18:04:32.562Z,17.25
2019-06-20T18:06:14.701Z,17.27
2019-06-20T18:07:51.421Z,17.57
2019-06-20T18:09:26.957Z,17.59
2019-06-20T18:11:03.800Z,17.94
2019-06-20T18:12:38.960Z,17.90
2019-06-20T18:14:18.411Z,17.95
2019-06-20T18:15:54.043Z,18.08
2019-06-20T18:17:31.875Z,17.80
2019-06-20T18:19:11.542Z,17.84
2019-06-20T18:20:54.954Z,17.92
2019-06-20T18:22:33.498Z,17.82
2019-06-20T18:24:10.515Z,17.65
2019-06-20T18:25:46.304Z,17.64
2019-06-20T18:27:24.007Z,17.66
2019-06-20T18:28:59.899Z,17.61
2019-06-20T18:30:44.875Z,17.38
2019-06-20T18:32:21.292Z,17.43
2019-06-20T18:33:56.905Z,17.39
2019-06-20T18:35:32.786Z,17.41
2019-06-20T18:37:09.139Z,17.36
2019-06-20T18:38:58.251Z,17.34
2019-06-20T18:40:34.997Z,17.43
2019-06-20T18:42:10.438Z,17.31
2019-06-20T18:43:50.584Z,17.41
2019-06-20T18:45:29.287Z,17.26
2019-06-20T18:47:11.943Z,16.97
2019-06-20T18:48:48.482Z,16.93
2019-06-20T18:50:26.497Z,16.76
2019-06-20T18:52:03.630Z,16.62
2019-06-20T18:53:43.116Z,16.35
2019-06-20T18:55:19.415Z,16.36
2019-06-20T18:56:55.889Z,16.19
2019-06-20T18:58:32.102Z,16.05
2019-06-20T19:00:33.563Z,15.99
2019-06-20T19:01:57.781Z,15.84
2019-06-20T19:03:34.001Z,15.81
2019-06-20T19:05:11.556Z,15.73
2019-06-20T19:06:49.488Z,15.60
2019-06-20T19:08:28.552Z,15.56
2019-06-20T19:10:06.609Z,15.55
2019-06-20T19:11:47.998Z,15.46
2019-06-20T19:13:24.093Z,15.44
2019-06-20T19:15:07.793Z,15.34
2019-06-20T19:16:43.942Z,15.36
2019-06-20T19:18:23.374Z,15.29
2019-06-20T19:19:59.377Z,15.23
2019-06-20T19:21:36.016Z,15.22
2019-06-20T19:23:11.532Z,15.23
2019-06-20T19:24:49.458Z,15.21
2019-06-20T19:26:25.762Z,15.19
2019-06-20T19:28:02.643Z,15.20
2019-06-20T19:29:39.317Z,15.19
2019-06-20T19:31:17.258Z,15.16
2019-06-20T19:32:54.719Z,15.14
2019-06-20T19:34:31.283Z,15.16
2019-06-20T19:36:08.954Z,15.15
2019-06-20T19:37:47.727Z,15.15
2019-06-20T19:39:31.159Z,15.13
2019-06-20T19:41:07.490Z,15.13
2019-06-20T19:42:57.621Z,15.17
2019-06-20T19:44:39.598Z,15.16
2019-06-20T19:46:17.978Z,15.12
2019-06-20T19:47:53.803Z,15.14
2019-06-20T19:49:40.704Z,15.13
2019-06-20T19:51:27.683Z,15.13
2019-06-20T19:53:03.757Z,15.12
2019-06-20T19:54:40.326Z,15.08
2019-06-20T19:56:16.779Z,15.11
2019-06-20T19:57:52.802Z,15.11
2019-06-20T19:59:29.658Z,15.12
2019-06-20T20:01:05.087Z,15.14
2019-06-20T20:02:43.780Z,15.07
2019-06-20T20:04:21.679Z,15.05
2019-06-20T20:05:59.299Z,15.05
2019-06-20T20:07:36.199Z,15.03
2019-06-20T20:09:12.985Z,15.02
2019-06-20T20:10:49.657Z,14.91
2019-06-20T20:12:29.446Z,14.84
2019-06-20T20:14:08.135Z,14.91
2019-06-20T20:15:44.020Z,14.93
2019-06-20T20:17:23.920Z,14.94
2019-06-20T20:19:00.170Z,14.96
2019-06-20T20:20:41.449Z,14.95
2019-06-20T20:22:20.822Z,14.98
2019-06-20T20:23:58.025Z,15.05
2019-06-20T20:25:36.323Z,15.04
2019-06-20T20:27:17.214Z,15.11
2019-06-20T20:28:54.608Z,15.10
2019-06-20T20:30:35.162Z,15.13
2019-06-20T20:32:13.221Z,15.22
2019-06-20T20:34:00.665Z,15.25
2019-06-20T20:35:40.430Z,15.17
2019-06-20T20:37:17.578Z,15.15
2019-06-20T20:38:57.909Z,15.08
2019-06-20T20:40:38.637Z,15.10
2019-06-20T20:42:17.741Z,15.15
2019-06-20T20:43:52.865Z,15.15
2019-06-20T20:45:35.654Z,15.10
2019-06-20T20:47:12.926Z,15.08
2019-06-20T20:48:48.940Z,15.04
2019-06-20T20:50:26.373Z,14.96
2019-06-20T20:52:02.765Z,14.96
2019-06-20T20:53:40.708Z,14.95
2019-06-20T20:55:18.354Z,14.92